Time;durP1;ratioP1;P1;durP2;ratioP2;P2;SDS_P1;SDS_P2;PMS_P1;PMS_P2;Temp;Humidity;BMP_temperature;BMP_pressure;BME280_temperature;BME280_humidity;BME280_pressure;Samples;Min_cycle;Max_cycle;Signal;HPM_P1;HPM_P2
2021/07/14 00:00:19;;;;;;;10.77;9.30;;;;;;;23.63;72.44;99493.41;3481841;28;20080;-42
2021/07/14 00:02:00;;;;;;;12.48;8.77;;;;;;;23.60;72.99;99498.84;3477005;28;20080;-42
2021/07/14 00:03:43;;;;;;;13.00;9.60;;;;;;;23.58;73.18;99502.50;3468994;28;20045;-43
2021/07/14 00:05:44;;;;;;;11.70;9.77;;;;;;;23.50;73.21;99498.38;3478989;28;20057;-42
2021/07/14 00:07:25;;;;;;;13.05;9.20;;;;;;;23.48;73.46;99505.53;3480610;28;20041;-42
2021/07/14 00:09:08;;;;;;;12.52;9.93;;;;;;;23.45;73.85;99500.34;3469501;28;20510;-42
2021/07/14 00:10:49;;;;;;;11.83;9.43;;;;;;;23.42;73.66;99499.63;3472852;28;20084;-42
2021/07/14 00:12:31;;;;;;;11.90;9.25;;;;;;;23.42;72.79;99500.47;3482520;28;20104;-42
2021/07/14 00:14:27;;;;;;;12.10;9.02;;;;;;;23.41;73.90;99504.03;3478277;28;20044;-42
2021/07/14 00:22:10;;;;;;;14.90;9.95;;;;;;;23.40;73.31;99491.75;3480403;28;20132;-42
2021/07/14 00:23:52;;;;;;;13.40;9.90;;;;;;;23.38;73.68;99490.94;3469814;28;20474;-42
2021/07/14 00:25:33;;;;;;;12.90;9.80;;;;;;;23.38;73.54;99496.25;3471858;28;20077;-42
2021/07/14 00:27:17;;;;;;;11.40;9.10;;;;;;;23.38;73.88;99498.91;3482680;28;20052;-42
2021/07/14 00:29:01;;;;;;;13.82;9.90;;;;;;;23.37;74.11;99501.59;3474658;28;20474;-42
2021/07/14 00:30:48;;;;;;;;;;;;;;;23.36;73.75;99500.75;3470612;28;20100;-42
2021/07/14 00:32:30;;;;;;;10.40;9.27;;;;;;;23.33;73.93;99498.22;3470374;28;19925;-42
2021/07/14 00:34:11;;;;;;;12.60;9.63;;;;;;;23.29;74.13;99497.50;3470425;28;20147;-43
2021/07/14 00:35:53;;;;;;;13.82;10.43;;;;;;;23.27;74.78;99498.47;3481775;28;20053;-42
2021/07/14 00:37:35;;;;;;;12.38;9.75;;;;;;;23.25;73.88;99506.44;3477985;28;20076;-42
2021/07/14 00:39:16;;;;;;;14.27;9.98;;;;;;;23.21;74.85;99498.69;3482424;28;20049;-42
2021/07/14 00:40:58;;;;;;;12.50;9.98;;;;;;;23.17;74.72;99511.19;3472675;28;20088;-42
2021/07/14 00:42:40;;;;;;;10.80;9.70;;;;;;;23.19;74.97;99508.50;3468208;28;20084;-42
2021/07/14 00:44:22;;;;;;;11.65;9.55;;;;;;;23.20;74.76;99500.50;3479126;28;20076;-42
2021/07/14 00:46:19;;;;;;;11.73;9.88;;;;;;;23.19;74.59;99509.34;3478517;28;20048;-42
2021/07/14 00:48:01;;;;;;;10.80;9.52;;;;;;;23.20;74.64;99508.44;3468647;28;20080;-42
2021/07/14 00:49:42;;;;;;;12.68;10.05;;;;;;;23.21;74.60;99509.28;3475004;28;20080;-42
2021/07/14 00:51:25;;;;;;;13.27;9.82;;;;;;;23.20;74.67;99502.25;3481735;28;20084;-43
2021/07/14 00:53:07;;;;;;;11.27;10.00;;;;;;;23.17;74.73;99508.53;3469806;28;20132;-42
2021/07/14 00:54:49;;;;;;;12.15;9.95;;;;;;;23.19;74.24;99505.84;3470037;28;20534;-42
2021/07/14 00:56:31;;;;;;;13.43;10.40;;;;;;;23.19;74.17;99508.50;3480553;28;20502;-42
2021/07/14 00:58:12;;;;;;;13.32;9.23;;;;;;;23.18;74.68;99504.97;3475467;28;20095;-42
2021/07/14 00:59:54;;;;;;;12.55;9.98;;;;;;;23.15;74.78;99505.97;3468788;28;20056;-43
2021/07/14 01:01:35;;;;;;;14.57;9.85;;;;;;;23.12;74.71;99506.06;3470633;28;20541;-42
2021/07/14 01:03:22;;;;;;;13.88;10.80;;;;;;;23.09;75.52;99508.84;3470440;28;20107;-42
2021/07/14 01:05:08;;;;;;;10.75;9.52;;;;;;;23.07;75.17;99504.53;3472488;28;20095;-42
2021/07/14 01:06:54;;;;;;;12.77;10.30;;;;;;;23.02;75.42;99502.06;3474133;28;20131;-42
2021/07/14 01:08:46;;;;;;;12.60;10.15;;;;;;;23.00;75.56;99500.44;3471228;28;20430;-42
2021/07/14 01:10:33;;;;;;;11.55;10.07;;;;;;;22.95;75.85;99500.59;3477284;28;20044;-42
2021/07/14 01:12:20;;;;;;;14.00;10.23;;;;;;;22.91;76.13;99506.94;3484034;28;20076;-42
2021/07/14 01:14:08;;;;;;;15.05;10.23;;;;;;;22.86;75.98;99501.81;3472348;28;20053;-42
2021/07/14 01:15:56;;;;;;;13.30;10.45;;;;;;;22.81;76.41;99505.56;3474344;28;20597;-42
2021/07/14 01:17:46;;;;;;;14.70;10.60;;;;;;;22.76;76.67;99503.13;3470791;28;20140;-42
2021/07/14 01:19:58;;;;;;;13.30;10.00;;;;;;;22.69;76.60;99504.25;3478139;28;20130;-42
2021/07/14 01:21:42;;;;;;;13.20;10.25;;;;;;;22.65;77.60;99502.66;3480604;28;20091;-42
2021/07/14 01:23:34;;;;;;;18.45;11.15;;;;;;;22.59;77.53;99498.47;3483508;28;20107;-42
2021/07/14 01:25:40;;;;;;;12.77;9.85;;;;;;;22.54;77.45;99492.50;3480011;28;20541;-42
2021/07/14 01:27:23;;;;;;;15.52;10.52;;;;;;;22.47;78.66;99499.81;3482301;28;20052;-42
2021/07/14 01:29:08;;;;;;;16.15;10.45;;;;;;;22.42;78.14;99498.22;3482987;28;20151;-42
2021/07/14 01:30:51;;;;;;;14.77;11.18;;;;;;;22.37;78.16;99493.09;3480444;28;20149;-42
2021/07/14 01:32:35;;;;;;;12.70;10.95;;;;;;;22.35;78.66;99501.13;3470862;28;20060;-42
2021/07/14 01:34:18;;;;;;;11.77;10.48;;;;;;;22.34;78.39;99498.53;3477682;28;20139;-42
2021/07/14 01:36:04;;;;;;;15.02;10.65;;;;;;;22.31;78.70;99496.84;3482799;28;20087;-42
2021/07/14 01:37:48;;;;;;;12.02;10.65;;;;;;;22.27;78.89;99492.59;3473190;28;20076;-43
2021/07/14 01:39:31;;;;;;;13.07;10.15;;;;;;;22.24;78.90;99499.78;3471972;28;20051;-42
2021/07/14 01:41:14;;;;;;;14.70;10.77;;;;;;;22.22;78.86;99497.19;3483346;28;20053;-42
2021/07/14 01:42:59;;;;;;;13.88;10.68;;;;;;;22.19;78.69;99494.66;3478244;28;20534;-42
2021/07/14 01:44:42;;;;;;;16.52;10.98;;;;;;;22.16;78.50;99500.03;3484188;28;20087;-42
2021/07/14 01:46:26;;;;;;;12.32;10.27;;;;;;;22.12;79.25;99509.00;3474156;28;20076;-42
2021/07/14 01:48:10;;;;;;;12.32;11.07;;;;;;;22.08;79.12;99500.34;3472031;28;20516;-42
2021/07/14 01:49:54;;;;;;;12.43;11.02;;;;;;;22.06;79.55;99503.97;3471839;28;20084;-43
2021/07/14 01:51:39;;;;;;;14.52;11.77;;;;;;;22.00;79.33;99497.09;3473476;28;20045;-42
2021/07/14 01:53:23;;;;;;;12.93;11.32;;;;;;;21.98;79.87;99509.50;3472762;28;20522;-42
2021/07/14 01:55:07;;;;;;;16.02;10.75;;;;;;;21.94;80.55;99499.97;3479774;28;20099;-42
2021/07/14 01:56:50;;;;;;;14.02;10.43;;;;;;;21.91;80.60;99502.72;3483347;28;20076;-43
2021/07/14 01:58:33;;;;;;;12.30;11.00;;;;;;;21.88;80.80;99501.06;3480686;28;20053;-42
2021/07/14 02:00:16;;;;;;;15.02;11.13;;;;;;;21.85;80.84;99501.16;3480024;28;20077;-42
2021/07/14 02:01:59;;;;;;;12.50;10.82;;;;;;;21.83;80.76;99510.91;3482758;28;20417;-42
2021/07/14 02:03:54;;;;;;;13.05;11.65;;;;;;;21.80;80.69;99506.59;3477342;28;20061;-42
2021/07/14 02:05:38;;;;;;;12.48;11.10;;;;;;;21.75;81.07;99503.25;3470676;28;20072;-42
2021/07/14 02:07:25;;;;;;;14.85;12.00;;;;;;;21.75;80.98;99508.53;3472835;28;20549;-42
2021/07/14 02:09:06;;;;;;;12.35;11.05;;;;;;;21.70;80.84;99507.84;3473317;28;20045;-42
2021/07/14 02:10:49;;;;;;;12.43;11.10;;;;;;;21.69;81.20;99508.75;3470357;28;20549;-42
2021/07/14 02:12:38;;;;;;;13.38;11.35;;;;;;;21.68;81.45;99516.72;3474846;28;20051;-42
2021/07/14 02:14:26;;;;;;;14.68;11.85;;;;;;;21.65;81.60;99507.16;3483195;28;20140;-42
2021/07/14 02:16:15;;;;;;;12.38;11.07;;;;;;;21.66;81.90;99518.56;3479753;28;20057;-43
2021/07/14 02:18:02;;;;;;;14.10;11.52;;;;;;;21.63;82.01;99512.47;3480683;28;20045;-42
2021/07/14 02:19:48;;;;;;;18.52;12.30;;;;;;;21.62;82.12;99516.03;3483431;28;20095;-42
2021/07/14 02:21:29;;;;;;;14.82;11.38;;;;;;;21.62;82.46;99517.81;3479377;28;20080;-42
2021/07/14 02:23:11;;;;;;;15.27;11.40;;;;;;;21.60;82.32;99512.53;3483441;28;20049;-42
2021/07/14 02:24:53;;;;;;;13.95;11.48;;;;;;;21.61;82.73;99514.31;3474522;28;20087;-42
2021/07/14 02:26:34;;;;;;;14.15;11.52;;;;;;;21.61;82.60;99516.03;3470887;28;20187;-42
2021/07/14 02:28:16;;;;;;;12.65;11.35;;;;;;;21.59;82.76;99521.38;3480073;28;20080;-42
2021/07/14 02:29:59;;;;;;;16.90;12.73;;;;;;;21.60;82.64;99516.97;3479418;28;20079;-42
2021/07/14 02:31:40;;;;;;;13.73;11.80;;;;;;;21.60;83.02;99523.09;3483573;28;20052;-42
2021/07/14 02:33:22;;;;;;;15.48;11.57;;;;;;;21.60;82.81;99519.59;3475820;28;20080;-42
2021/07/14 02:35:04;;;;;;;13.18;11.63;;;;;;;21.59;82.93;99516.09;3470676;28;20084;-42
2021/07/14 02:36:47;;;;;;;16.42;12.05;;;;;;;21.61;82.65;99521.31;3479585;28;20083;-42
2021/07/14 02:38:30;;;;;;;;;;;;;;;21.64;82.25;99522.09;3480882;28;20100;-42
2021/07/14 02:40:15;;;;;;;13.35;11.48;;;;;;;21.66;82.12;99513.28;3482820;28;19979;-42
2021/07/14 02:42:04;;;;;;;13.65;11.25;;;;;;;21.68;82.49;99519.38;3477991;28;20042;-42
2021/07/14 02:43:49;;;;;;;15.20;12.35;;;;;;;21.70;82.62;99522.81;3469927;28;20084;-42
2021/07/14 02:45:34;;;;;;;18.92;12.63;;;;;;;21.72;82.62;99523.63;3478240;28;20470;-42
2021/07/14 02:47:15;;;;;;;20.88;13.32;;;;;;;21.73;82.44;99528.84;3479764;28;20054;-42
2021/07/14 02:49:00;;;;;;;17.95;12.02;;;;;;;21.75;82.44;99534.09;3470617;28;20072;-42
2021/07/14 02:50:42;;;;;;;13.60;11.68;;;;;;;21.78;82.16;99536.63;3473046;28;20041;-43
2021/07/14 02:52:26;;;;;;;18.15;11.73;;;;;;;21.81;82.57;99534.75;3479966;28;20103;-42
2021/07/14 02:54:15;;;;;;;20.30;11.15;;;;;;;21.83;82.49;99532.03;3476968;28;20076;-42
2021/07/14 02:55:58;;;;;;;14.90;12.07;;;;;;;21.85;82.65;99538.13;3482249;28;20049;-42
2021/07/14 02:57:41;;;;;;;16.90;11.65;;;;;;;21.87;82.90;99538.94;3471327;28;20088;-42
2021/07/14 02:59:28;;;;;;;19.33;12.43;;;;;;;21.91;82.99;99542.34;3471766;28;20049;-42
2021/07/14 03:01:12;;;;;;;15.13;11.65;;;;;;;21.94;82.97;99537.81;3483364;28;20088;-42
2021/07/14 03:02:55;;;;;;;16.10;11.60;;;;;;;21.97;82.91;99542.13;3475111;28;20136;-42
2021/07/14 03:04:41;;;;;;;17.02;12.15;;;;;;;22.02;82.91;99534.91;3469478;28;20494;-42
2021/07/14 03:06:23;;;;;;;17.50;12.90;;;;;;;22.06;82.77;99533.03;3470936;28;20418;-42
2021/07/14 03:08:12;;;;;;;15.38;11.80;;;;;;;22.10;83.00;99534.63;3471222;28;20046;-42
2021/07/14 03:09:54;;;;;;;14.80;11.68;;;;;;;22.18;82.87;99537.88;3483030;28;20132;-42
2021/07/14 03:11:39;;;;;;;17.77;12.90;;;;;;;22.22;82.87;99539.47;3481193;28;20520;-42
2021/07/14 03:13:21;;;;;;;16.13;11.73;;;;;;;22.30;82.33;99544.47;3482696;28;20139;-42
2021/07/14 03:15:07;;;;;;;18.73;11.93;;;;;;;22.37;82.24;99540.69;3470930;28;20076;-43
2021/07/14 03:16:50;;;;;;;21.60;12.20;;;;;;;22.44;81.64;99543.97;3471224;28;20048;-42
2021/07/14 03:18:33;;;;;;;;;;;;;;;22.51;81.76;99545.50;3483073;28;20498;-42
2021/07/14 03:20:15;;;;;;;17.30;11.88;;;;;;;22.57;81.53;99546.13;3478569;28;19947;-42
2021/07/14 03:21:57;;;;;;;17.92;13.57;;;;;;;22.61;80.50;99546.88;3483015;28;20581;-42
2021/07/14 03:23:39;;;;;;;17.80;12.57;;;;;;;22.70;79.92;99538.59;3478679;28;20092;-42
2021/07/14 03:25:21;;;;;;;17.23;11.90;;;;;;;22.77;80.59;99540.06;3481854;28;20088;-42
2021/07/14 03:27:05;;;;;;;15.35;12.43;;;;;;;22.86;79.86;99538.00;3478890;28;20591;-43
2021/07/14 03:28:46;;;;;;;;;;;;;;;22.94;79.25;99541.22;3479086;28;20487;-42
2021/07/14 03:30:28;;;;;;;15.52;12.55;;;;;;;23.00;78.07;99538.31;3482832;28;19967;-42
2021/07/14 03:32:11;;;;;;;14.05;12.02;;;;;;;23.05;77.58;99539.00;3478696;28;20142;-42
2021/07/14 03:33:52;;;;;;;19.80;12.40;;;;;;;23.12;75.52;99542.28;3483191;28;20076;-42
2021/07/14 03:35:35;;;;;;;17.95;12.82;;;;;;;23.20;76.72;99545.47;3478533;28;20084;-42
2021/07/14 03:37:17;;;;;;;14.93;12.70;;;;;;;23.27;76.90;99547.00;3481181;28;20139;-42
2021/07/14 03:38:59;;;;;;;16.25;12.48;;;;;;;23.36;77.11;99547.50;3480466;28;20151;-42
2021/07/14 03:40:42;;;;;;;15.20;11.77;;;;;;;23.43;77.09;99546.34;3478511;28;20104;-42
2021/07/14 03:42:24;;;;;;;;;;;;;;;23.51;76.82;99553.03;3483114;28;20106;-42
2021/07/14 03:44:08;;;;;;;14.23;12.35;;;;;;;23.59;77.08;99541.25;3478530;28;19980;-42
2021/07/14 03:45:51;;;;;;;14.10;12.57;;;;;;;23.68;77.19;99554.16;3482872;28;20095;-42
2021/07/14 03:47:34;;;;;;;16.02;12.57;;;;;;;23.75;76.40;99546.78;3478596;28;20494;-42
2021/07/14 03:49:16;;;;;;;16.23;12.47;;;;;;;23.83;76.65;99549.97;3480834;28;20137;-42
2021/07/14 03:51:00;;;;;;;13.95;11.20;;;;;;;23.88;72.74;99550.63;3470784;28;20046;-42
2021/07/14 03:52:41;;;;;;;20.58;13.13;;;;;;;23.93;74.13;99556.59;3472235;28;20159;-42
2021/07/14 03:54:23;;;;;;;17.95;12.75;;;;;;;24.00;74.11;99554.56;3483130;28;20072;-42
2021/07/14 03:56:05;;;;;;;17.10;11.70;;;;;;;24.06;73.90;99552.50;3478308;28;20087;-42
2021/07/14 03:57:47;;;;;;;17.85;11.32;;;;;;;24.15;73.12;99556.53;3482341;28;20087;-43
2021/07/14 03:59:30;;;;;;;19.02;12.20;;;;;;;24.23;73.98;99551.78;3478675;28;20087;-42
2021/07/14 04:01:12;;;;;;;18.02;12.20;;;;;;;24.33;73.44;99551.34;3480928;28;20076;-42
2021/07/14 04:02:55;;;;;;;15.73;11.85;;;;;;;24.42;72.39;99550.97;3469723;28;20054;-42
2021/07/14 04:04:36;;;;;;;15.50;11.40;;;;;;;24.49;72.23;99557.72;3471852;28;20107;-42
2021/07/14 04:06:18;;;;;;;16.63;11.48;;;;;;;24.57;71.51;99560.00;3468973;28;20084;-43
2021/07/14 04:08:01;;;;;;;17.98;11.90;;;;;;;24.64;71.60;99556.97;3475662;28;20072;-42
2021/07/14 04:09:44;;;;;;;15.50;11.25;;;;;;;24.71;71.56;99560.22;3482257;28;20080;-42
2021/07/14 04:11:25;;;;;;;15.30;10.68;;;;;;;24.76;69.66;99563.53;3478801;28;20080;-43
2021/07/14 04:13:07;;;;;;;12.75;9.95;;;;;;;24.81;70.07;99561.56;3479440;28;20404;-43
2021/07/14 04:14:48;;;;;;;11.48;10.27;;;;;;;24.87;70.03;99565.69;3469045;28;20136;-43
2021/07/14 04:16:30;;;;;;;15.02;10.88;;;;;;;24.93;70.25;99562.78;3475390;28;20068;-42
2021/07/14 04:18:12;;;;;;;17.55;11.40;;;;;;;25.00;69.44;99565.97;3482472;28;20080;-43
2021/07/14 04:19:53;;;;;;;16.50;10.88;;;;;;;25.07;69.32;99572.72;3478434;28;20145;-42
2021/07/14 04:21:36;;;;;;;18.92;11.40;;;;;;;25.11;69.42;99563.69;3479469;28;20073;-42
2021/07/14 04:23:17;;;;;;;15.13;11.90;;;;;;;25.17;69.08;99557.22;3482366;28;20110;-42
2021/07/14 04:25:00;;;;;;;19.63;11.18;;;;;;;25.23;68.95;99576.38;3478136;28;20279;-42
2021/07/14 04:26:41;;;;;;;18.55;11.60;;;;;;;25.31;69.25;99568.03;3482526;28;20084;-42
2021/07/14 04:28:22;;;;;;;25.60;12.13;;;;;;;25.38;69.59;99572.09;3474503;28;20502;-43
2021/07/14 04:30:05;;;;;;;13.18;10.68;;;;;;;25.44;67.71;99564.78;3468917;28;20088;-42
2021/07/14 04:31:46;;;;;;;12.75;11.23;;;;;;;25.49;66.88;99562.75;3470033;28;20144;-42
2021/07/14 04:33:28;;;;;;;15.05;10.10;;;;;;;25.55;67.22;99566.00;3470106;28;20049;-42
2021/07/14 04:35:10;;;;;;;15.00;10.30;;;;;;;25.59;66.52;99562.25;3470641;28;20081;-42
2021/07/14 04:36:51;;;;;;;14.68;10.75;;;;;;;25.68;67.06;99560.06;3471222;28;20061;-42
2021/07/14 04:38:33;;;;;;;11.55;10.35;;;;;;;25.77;67.06;99559.59;3468105;28;20049;-42
2021/07/14 04:40:15;;;;;;;10.73;8.75;;;;;;;25.87;66.46;99562.66;3475407;28;20080;-43
2021/07/14 04:41:56;;;;;;;13.65;9.57;;;;;;;25.96;65.23;99563.03;3482359;28;20080;-42
2021/07/14 04:43:38;;;;;;;14.10;9.75;;;;;;;26.04;65.65;99562.63;3479176;28;20487;-42
2021/07/14 04:45:19;;;;;;;19.02;10.40;;;;;;;26.09;65.44;99565.06;3480523;28;20550;-42
2021/07/14 04:47:01;;;;;;;13.00;9.80;;;;;;;26.17;64.01;99568.19;3469451;28;20084;-42
2021/07/14 04:48:43;;;;;;;16.58;9.48;;;;;;;26.27;64.08;99560.59;3470938;28;20529;-42
2021/07/14 04:50:24;;;;;;;16.65;8.85;;;;;;;26.37;63.02;99563.63;3468752;28;20126;-43
2021/07/14 04:52:06;;;;;;;13.57;9.32;;;;;;;26.49;64.13;99561.16;3470872;28;20088;-42
2021/07/14 04:53:47;;;;;;;15.77;9.23;;;;;;;26.61;63.32;99570.31;3467207;28;20081;-42
2021/07/14 04:55:29;;;;;;;18.35;8.95;;;;;;;26.73;62.75;99566.97;3477911;28;20073;-42
2021/07/14 04:57:10;;;;;;;12.50;8.40;;;;;;;26.84;62.87;99562.88;3480231;28;20483;-43
2021/07/14 04:58:52;;;;;;;19.33;9.55;;;;;;;26.97;61.03;99566.59;3479602;28;20495;-42
2021/07/14 05:00:33;;;;;;;17.73;9.25;;;;;;;27.07;60.70;99569.59;3478617;28;20084;-43
2021/07/14 05:02:15;;;;;;;12.52;8.70;;;;;;;27.14;60.41;99559.44;3468500;28;20089;-43
2021/07/14 05:03:57;;;;;;;14.77;9.05;;;;;;;27.22;60.31;99566.06;3473909;28;20080;-42
2021/07/14 05:05:38;;;;;;;7.82;6.57;;;;;;;27.28;57.42;99560.38;3482091;28;20053;-42
2021/07/14 05:07:20;;;;;;;9.38;7.68;;;;;;;27.32;57.11;99565.56;3477819;28;20049;-42
2021/07/14 05:09:01;;;;;;;12.98;7.35;;;;;;;27.39;57.34;99567.75;3480270;28;20458;-42
2021/07/14 05:10:43;;;;;;;8.32;6.90;;;;;;;27.46;57.21;99561.13;3479518;28;20064;-43
2021/07/14 05:12:24;;;;;;;18.38;7.95;;;;;;;27.55;58.16;99570.41;3478473;28;20046;-43
2021/07/14 05:14:05;;;;;;;13.60;8.40;;;;;;;27.65;57.56;99573.44;3481891;28;20582;-44
2021/07/14 05:15:47;;;;;;;13.93;7.10;;;;;;;27.75;56.20;99568.41;3475633;28;20073;-43
2021/07/14 05:17:29;;;;;;;10.20;7.07;;;;;;;27.84;55.54;99568.72;3468302;28;20064;-43
2021/07/14 05:19:13;;;;;;;10.27;7.05;;;;;;;27.99;55.47;99568.75;3477124;28;20052;-42
2021/07/14 05:20:54;;;;;;;12.48;7.70;;;;;;;28.09;55.03;99572.59;3478860;28;20111;-43
2021/07/14 05:22:37;;;;;;;11.32;6.30;;;;;;;28.17;52.98;99574.78;3481290;28;20111;-43
2021/07/14 05:24:18;;;;;;;12.63;7.10;;;;;;;28.23;53.29;99569.06;3477650;28;20454;-43
2021/07/14 05:25:59;;;;;;;13.80;6.03;;;;;;;28.33;51.75;99564.91;3481762;28;20055;-43
2021/07/14 05:27:41;;;;;;;11.48;5.80;;;;;;;28.46;51.61;99569.50;3477450;28;20057;-42
2021/07/14 05:29:22;;;;;;;9.63;5.75;;;;;;;28.56;50.44;99571.47;3482121;28;20088;-43
2021/07/14 05:31:05;;;;;;;7.63;5.70;;;;;;;28.63;50.70;99573.78;3477521;28;20141;-43
2021/07/14 05:32:46;;;;;;;16.63;7.17;;;;;;;28.73;51.75;99577.59;3480009;28;20060;-43
2021/07/14 05:34:28;;;;;;;12.80;6.20;;;;;;;28.79;50.91;99574.53;3470319;28;20282;-44
2021/07/14 05:36:11;;;;;;;14.00;6.63;;;;;;;28.82;50.64;99573.50;3470585;28;20053;-43
2021/07/14 05:37:53;;;;;;;8.27;6.45;;;;;;;28.85;50.10;99573.28;3481779;28;20142;-43
2021/07/14 05:39:34;;;;;;;13.88;7.00;;;;;;;28.97;51.62;99573.41;3477430;28;20478;-43
2021/07/14 05:41:15;;;;;;;11.35;7.00;;;;;;;29.07;50.87;99570.97;3481811;28;20056;-43
2021/07/14 05:42:57;;;;;;;11.48;7.15;;;;;;;29.19;49.98;99569.34;3471531;28;20499;-43
2021/07/14 05:44:38;;;;;;;11.27;6.10;;;;;;;29.29;48.28;99573.13;3469574;28;20077;-43
2021/07/14 05:46:21;;;;;;;11.32;6.60;;;;;;;29.31;48.30;99570.34;3479185;28;20138;-42
2021/07/14 05:48:03;;;;;;;9.52;6.53;;;;;;;29.43;49.43;99574.88;3478490;28;20144;-44
2021/07/14 05:49:45;;;;;;;9.55;7.00;;;;;;;29.53;49.61;99562.59;3468568;28;20081;-42
2021/07/14 05:51:27;;;;;;;8.80;6.60;;;;;;;29.60;48.75;99575.59;3473984;28;20514;-42
2021/07/14 05:53:08;;;;;;;7.43;6.70;;;;;;;29.72;49.27;99572.97;3468818;28;20083;-42
2021/07/14 05:54:49;;;;;;;7.30;6.60;;;;;;;29.86;48.76;99572.03;3473801;28;20085;-43
2021/07/14 05:56:31;;;;;;;11.75;7.00;;;;;;;30.02;48.25;99569.16;3471705;28;20072;-42
2021/07/14 05:58:14;;;;;;;12.98;7.43;;;;;;;30.13;48.68;99566.59;3481326;28;20087;-44
2021/07/14 05:59:55;;;;;;;;;;;;;;;30.26;47.08;99566.66;3482233;28;20060;-42
2021/07/14 06:01:37;;;;;;;10.15;7.00;;;;;;;30.32;46.46;99567.19;3470451;28;20024;-42
2021/07/14 06:03:18;;;;;;;8.80;6.68;;;;;;;30.35;46.87;99573.19;3475896;28;20425;-43
2021/07/14 06:05:00;;;;;;;8.63;6.63;;;;;;;30.39;47.24;99565.78;3484233;28;20285;-42
2021/07/14 06:06:43;;;;;;;7.90;7.10;;;;;;;30.48;47.03;99568.66;3471424;28;20054;-43
2021/07/14 06:08:24;;;;;;;9.55;6.80;;;;;;;30.50;48.05;99571.22;3471514;28;20072;-42
2021/07/14 06:10:07;;;;;;;12.05;7.05;;;;;;;30.52;46.04;99571.13;3472130;28;20103;-43
2021/07/14 06:11:49;;;;;;;10.55;7.20;;;;;;;30.58;45.92;99566.19;3473956;28;20044;-43
2021/07/14 06:13:30;;;;;;;10.23;6.65;;;;;;;30.64;45.73;99567.56;3470108;28;20544;-42
2021/07/14 06:15:12;;;;;;;9.30;7.05;;;;;;;30.71;46.61;99573.34;3473576;28;20053;-43
2021/07/14 06:16:55;;;;;;;8.88;6.43;;;;;;;30.72;45.81;99569.69;3470092;28;20430;-43
2021/07/14 06:18:37;;;;;;;11.65;7.45;;;;;;;30.74;45.94;99571.31;3471646;28;20056;-43
2021/07/14 06:20:20;;;;;;;7.45;6.72;;;;;;;30.72;44.21;99565.22;3471901;28;20487;-42
2021/07/14 06:22:02;;;;;;;7.57;6.23;;;;;;;30.75;43.87;99565.00;3483425;28;20135;-42
2021/07/14 06:23:43;;;;;;;10.88;6.70;;;;;;;30.82;43.55;99568.94;3479279;28;20081;-42
2021/07/14 06:25:24;;;;;;;8.90;6.88;;;;;;;30.87;44.74;99563.28;3483767;28;20430;-42
2021/07/14 06:27:07;;;;;;;11.75;6.88;;;;;;;30.87;45.32;99568.63;3479354;28;20080;-43
2021/07/14 06:28:48;;;;;;;8.05;6.97;;;;;;;30.83;44.08;99565.31;3483612;28;20072;-44
2021/07/14 06:30:29;;;;;;;8.02;6.40;;;;;;;30.74;44.29;99565.97;3473286;28;20107;-42
2021/07/14 06:32:11;;;;;;;9.30;6.68;;;;;;;30.83;45.31;99562.63;3471685;28;20045;-43
2021/07/14 06:33:53;;;;;;;10.07;7.30;;;;;;;30.94;46.24;99563.69;3481739;28;20076;-43
2021/07/14 06:35:35;;;;;;;8.48;7.50;;;;;;;31.02;44.36;99563.97;3479232;28;20060;-43
2021/07/14 06:37:17;;;;;;;9.95;7.10;;;;;;;31.16;44.58;99562.94;3483556;28;20144;-43
2021/07/14 06:39:01;;;;;;;9.50;7.78;;;;;;;31.31;44.48;99556.47;3479385;28;20103;-43
2021/07/14 06:40:43;;;;;;;9.68;7.43;;;;;;;31.49;45.11;99569.50;3482691;28;20060;-42
2021/07/14 06:42:24;;;;;;;9.57;7.75;;;;;;;31.65;45.46;99567.38;3478889;28;20080;-43
2021/07/14 06:44:06;;;;;;;13.82;7.90;;;;;;;31.79;46.53;99572.53;3481054;28;20135;-43
2021/07/14 06:45:47;;;;;;;22.35;7.82;;;;;;;31.93;46.90;99565.31;3470489;28;20581;-44
2021/07/14 06:47:29;;;;;;;10.95;7.15;;;;;;;32.06;45.28;99566.06;3473084;28;20045;-43
2021/07/14 06:49:10;;;;;;;11.45;7.68;;;;;;;32.15;44.79;99568.03;3483505;28;20136;-42
2021/07/14 06:50:52;;;;;;;11.57;7.70;;;;;;;32.27;44.04;99570.72;3479099;28;20138;-42
2021/07/14 06:52:33;;;;;;;9.88;7.18;;;;;;;32.24;43.47;99563.78;3478684;28;20533;-43
2021/07/14 06:54:15;;;;;;;9.43;7.65;;;;;;;32.35;42.44;99566.47;3479275;28;20165;-44
2021/07/14 06:55:58;;;;;;;8.82;7.15;;;;;;;32.38;41.87;99565.38;3481198;28;20282;-43
2021/07/14 06:57:40;;;;;;;8.95;7.50;;;;;;;32.37;42.16;99563.66;3470372;28;20538;-42
2021/07/14 06:59:22;;;;;;;8.50;7.70;;;;;;;32.43;40.36;99560.50;3473135;28;20050;-42
2021/07/14 07:01:04;;;;;;;8.75;6.72;;;;;;;32.43;41.23;99571.25;3483329;28;20091;-43
2021/07/14 07:02:45;;;;;;;7.90;7.10;;;;;;;32.38;41.59;99555.50;3478647;28;20107;-43
2021/07/14 07:04:26;;;;;;;7.97;7.18;;;;;;;32.49;42.23;99561.88;3482252;28;20106;-43
2021/07/14 07:06:08;;;;;;;9.52;7.18;;;;;;;32.58;41.32;99561.13;3478770;28;20077;-43
2021/07/14 07:07:50;;;;;;;8.85;7.10;;;;;;;32.70;42.00;99567.38;3479505;28;20068;-42
2021/07/14 07:09:31;;;;;;;16.50;7.78;;;;;;;32.82;42.02;99560.13;3481573;28;20055;-43
2021/07/14 07:11:12;;;;;;;15.88;7.85;;;;;;;32.91;42.41;99567.47;3479194;28;20474;-44
2021/07/14 07:12:54;;;;;;;35.50;8.60;;;;;;;33.04;42.53;99559.25;3469397;28;20422;-42
2021/07/14 07:14:35;;;;;;;15.27;7.60;;;;;;;33.14;41.89;99560.25;3469925;28;20072;-44
2021/07/14 07:16:17;;;;;;;12.65;7.60;;;;;;;33.20;41.16;99561.56;3470254;28;20128;-44
2021/07/14 07:17:58;;;;;;;10.30;7.25;;;;;;;33.23;40.07;99561.31;3480512;28;20048;-43
2021/07/14 07:19:39;;;;;;;13.13;7.30;;;;;;;33.11;39.93;99558.66;3478698;28;20126;-42
2021/07/14 07:21:22;;;;;;;11.90;7.50;;;;;;;33.13;40.25;99562.06;3483342;28;20087;-43
2021/07/14 07:23:04;;;;;;;12.20;7.55;;;;;;;33.11;40.43;99565.88;3478577;28;20049;-42
2021/07/14 07:24:45;;;;;;;12.82;7.22;;;;;;;33.18;41.20;99566.22;3483128;28;20052;-42
2021/07/14 07:26:27;;;;;;;9.98;7.57;;;;;;;33.11;39.31;99564.03;3480915;28;20052;-42
2021/07/14 07:28:29;;;;;;;8.52;7.60;;;;;;;33.12;38.51;99567.59;3480284;28;20099;-42
2021/07/14 07:30:12;;;;;;;9.23;6.50;;;;;;;33.12;37.79;99564.91;3469638;28;20119;-42
2021/07/14 07:31:53;;;;;;;8.35;6.50;;;;;;;33.14;38.84;99571.00;3474047;28;20044;-41
2021/07/14 07:33:35;;;;;;;7.60;6.75;;;;;;;33.15;38.71;99572.69;3483100;28;20196;-42
2021/07/14 07:35:16;;;;;;;12.18;6.43;;;;;;;33.20;37.98;99567.78;3474295;28;20136;-42
2021/07/14 07:37:00;;;;;;;9.63;6.57;;;;;;;33.30;38.75;99571.44;3470376;28;20057;-43
2021/07/14 07:38:41;;;;;;;7.60;6.25;;;;;;;33.42;38.69;99569.56;3479793;28;20095;-44
2021/07/14 07:40:23;;;;;;;23.95;7.28;;;;;;;33.41;38.23;99567.84;3477486;28;20590;-42
2021/07/14 07:42:06;;;;;;;21.77;7.32;;;;;;;33.50;37.81;99571.59;3481587;28;20474;-42
2021/07/14 07:43:47;;;;;;;8.27;6.15;;;;;;;33.39;36.16;99566.28;3478759;28;20044;-42
2021/07/14 07:45:29;;;;;;;6.95;5.15;;;;;;;33.29;36.42;99569.72;3482946;28;20084;-43
2021/07/14 07:47:10;;;;;;;6.05;5.45;;;;;;;33.22;37.15;99565.81;3478379;28;20076;-42
2021/07/14 07:48:52;;;;;;;6.43;5.32;;;;;;;33.02;37.23;99563.91;3481692;28;20060;-43
2021/07/14 07:50:33;;;;;;;8.52;5.63;;;;;;;32.96;37.74;99567.06;3470872;28;20095;-43
2021/07/14 07:52:18;;;;;;;6.45;5.85;;;;;;;32.98;39.62;99562.44;3469739;28;20505;-42
2021/07/14 07:54:00;;;;;;;8.02;6.50;;;;;;;33.15;40.40;99563.78;3482093;28;20118;-42
2021/07/14 07:55:42;;;;;;;10.17;5.80;;;;;;;33.27;38.48;99560.06;3474508;28;20559;-42
2021/07/14 07:57:23;;;;;;;7.60;5.63;;;;;;;33.46;38.53;99552.19;3469316;28;20091;-43
2021/07/14 07:59:05;;;;;;;7.07;5.80;;;;;;;33.66;39.06;99552.38;3472538;28;20042;-42
2021/07/14 08:00:49;;;;;;;10.93;5.88;;;;;;;33.78;37.22;99554.00;3469833;28;20049;-42
2021/07/14 08:02:30;;;;;;;10.32;6.18;;;;;;;33.81;36.63;99551.06;3471299;28;20052;-45
2021/07/14 08:04:12;;;;;;;6.28;5.68;;;;;;;33.74;37.99;99552.59;3472555;28;20053;-42